Time;durP1;ratioP1;P1;durP2;ratioP2;P2;SDS_P1;SDS_P2;PMS_P1;PMS_P2;Temp;Humidity;BMP_temperature;BMP_pressure;BME280_temperature;BME280_humidity;BME280_pressure;Samples;Min_cycle;Max_cycle;Signal;HPM_P1;HPM_P2
2023/10/13 00:01:23;;;;;;;20.67;7.93;;;;;;;15.66;100.00;100441.23;1476805;88;21419;-79
2023/10/13 00:03:54;;;;;;;16.33;7.37;;;;;;;15.67;100.00;100444.22;1483898;88;21550;-80
2023/10/13 00:06:20;;;;;;;15.93;6.87;;;;;;;15.66;100.00;100449.25;1470556;88;22824;-81
2023/10/13 00:08:46;;;;;;;23.00;7.80;;;;;;;15.61;100.00;100455.62;1478768;88;21627;-82
2023/10/13 00:11:14;;;;;;;14.27;6.60;;;;;;;15.59;100.00;100472.30;1477540;88;21459;-82
2023/10/13 00:13:50;;;;;;;19.20;8.67;;;;;;;15.55;100.00;100477.68;1467963;88;21576;-82
2023/10/13 00:16:17;;;;;;;17.77;8.53;;;;;;;15.52;100.00;100486.86;1474147;88;21427;-83
2023/10/13 00:18:42;;;;;;;20.73;8.40;;;;;;;15.52;100.00;100499.38;1475601;88;21545;-82
2023/10/13 00:21:13;;;;;;;20.03;7.63;;;;;;;15.48;100.00;100499.42;1476915;88;21376;-82
2023/10/13 00:23:53;;;;;;;15.30;8.10;;;;;;;15.49;100.00;100478.40;1473113;88;21627;-80
2023/10/13 00:26:28;;;;;;;18.43;7.87;;;;;;;15.50;100.00;100484.05;1476031;88;21420;-80
2023/10/13 00:29:08;;;;;;;19.40;7.60;;;;;;;15.55;100.00;100474.50;1463102;88;21472;-80
2023/10/13 00:31:33;;;;;;;17.40;8.23;;;;;;;15.63;100.00;100469.61;1479008;88;21494;-80
2023/10/13 00:34:01;;;;;;;16.77;7.80;;;;;;;15.67;100.00;100468.23;1474045;88;21664;-80
2023/10/13 00:36:25;;;;;;;22.87;8.73;;;;;;;15.72;100.00;100469.89;1469376;88;21583;-79
2023/10/13 00:38:52;;;;;;;20.40;9.53;;;;;;;15.74;100.00;100474.55;1469800;88;22316;-81
2023/10/13 00:41:33;;;;;;;24.07;8.03;;;;;;;15.71;100.00;100476.25;1452083;88;21429;-81
2023/10/13 00:46:38;;;;;;;19.27;7.00;;;;;;;15.67;100.00;100483.42;1471714;88;21643;-81
2023/10/13 00:49:08;;;;;;;26.23;7.03;;;;;;;15.60;100.00;100490.49;1482021;88;21450;-81
2023/10/13 00:51:35;;;;;;;20.23;7.47;;;;;;;15.49;100.00;100497.89;1468244;88;21465;-81
2023/10/13 00:54:10;;;;;;;22.27;8.30;;;;;;;15.44;100.00;100497.59;1484524;88;21590;-81
2023/10/13 00:56:33;;;;;;;21.77;7.60;;;;;;;15.46;100.00;100492.09;1477922;88;21487;-81
2023/10/13 00:59:02;;;;;;;23.87;10.10;;;;;;;15.41;100.00;100503.28;1474779;88;21702;-83
2023/10/13 01:01:32;;;;;;;20.13;8.17;;;;;;;15.39;100.00;100493.79;1476888;88;22388;-82
2023/10/13 01:03:59;;;;;;;17.92;7.22;;;;;;;15.37;100.00;100494.50;1468898;88;21509;-82
2023/10/13 01:06:28;;;;;;;21.80;8.13;;;;;;;15.39;100.00;100496.46;1472967;88;22294;-81
2023/10/13 01:09:16;;;;;;;15.07;8.10;;;;;;;15.39;100.00;100512.45;1462961;88;21487;-80
2023/10/13 01:11:53;;;;;;;18.90;8.77;;;;;;;15.34;100.00;100500.50;1471251;88;21569;-80
2023/10/13 01:14:23;;;;;;;17.07;8.10;;;;;;;15.30;100.00;100509.84;1468991;88;22897;-80
2023/10/13 01:16:52;;;;;;;17.40;7.67;;;;;;;15.31;100.00;100504.85;1460952;88;22485;-81
2023/10/13 01:19:27;;;;;;;18.77;8.93;;;;;;;15.31;100.00;100507.52;1476285;88;22419;-80
2023/10/13 01:22:04;;;;;;;31.37;8.80;;;;;;;15.28;100.00;100507.87;1480380;88;21516;-80
2023/10/13 01:24:37;;;;;;;32.40;9.70;;;;;;;15.30;100.00;100517.02;1481284;88;21480;-81
2023/10/13 01:27:20;;;;;;;16.07;7.53;;;;;;;15.27;100.00;100523.53;1461841;88;21538;-80
2023/10/13 01:29:48;;;;;;;21.30;7.57;;;;;;;15.25;100.00;100523.41;1472168;88;21420;-80
2023/10/13 01:32:18;;;;;;;27.10;10.07;;;;;;;15.25;100.00;100524.23;1477569;88;21708;-80
2023/10/13 01:34:49;;;;;;;22.30;8.48;;;;;;;15.25;100.00;100517.56;1474037;88;21435;-80
2023/10/13 01:37:19;;;;;;;18.80;8.83;;;;;;;15.23;100.00;100516.90;1471667;88;21539;-80
2023/10/13 01:39:49;;;;;;;23.05;9.40;;;;;;;15.16;100.00;100525.25;1459418;88;21472;-80
2023/10/13 01:42:24;;;;;;;23.50;10.55;;;;;;;15.11;100.00;100525.80;1472176;88;21413;-81
2023/10/13 01:44:48;;;;;;;29.37;9.43;;;;;;;15.11;100.00;100534.30;1473196;88;23146;-80
2023/10/13 01:47:16;;;;;;;21.20;8.93;;;;;;;15.11;100.00;100532.97;1475319;88;21457;-80
2023/10/13 01:49:46;;;;;;;22.33;8.90;;;;;;;15.13;100.00;100533.60;1475525;88;22185;-81
2023/10/13 01:52:11;;;;;;;15.30;7.83;;;;;;;15.11;100.00;100547.62;1477728;88;21501;-80
2023/10/13 01:54:40;;;;;;;21.73;8.43;;;;;;;15.11;100.00;100546.30;1478505;88;21630;-82
2023/10/13 01:57:24;;;;;;;16.47;8.13;;;;;;;15.12;100.00;100547.44;1477775;88;21472;-82
2023/10/13 01:59:50;;;;;;;18.07;9.63;;;;;;;15.13;100.00;100552.27;1474213;88;22478;-82
2023/10/13 02:02:28;;;;;;;23.57;10.43;;;;;;;15.13;100.00;100553.59;1473557;88;21407;-80
2023/10/13 02:05:00;;;;;;;22.50;9.27;;;;;;;15.14;100.00;100545.13;1475735;88;22521;-81
2023/10/13 02:07:29;;;;;;;20.03;9.47;;;;;;;15.15;100.00;100548.11;1465924;88;21493;-81
2023/10/13 02:09:51;;;;;;;15.17;7.47;;;;;;;15.12;100.00;100557.28;1464878;88;21501;-81
2023/10/13 02:12:19;;;;;;;24.70;10.47;;;;;;;15.09;100.00;100560.30;1467065;88;21598;-81
2023/10/13 02:14:45;;;;;;;25.80;8.67;;;;;;;15.09;100.00;100548.30;1480179;88;21361;-79
2023/10/13 02:17:16;;;;;;;21.37;8.87;;;;;;;15.06;100.00;100546.80;1480989;88;21507;-80
2023/10/13 02:19:46;;;;;;;17.73;9.30;;;;;;;15.01;100.00;100554.99;1478844;88;21517;-79
2023/10/13 02:22:31;;;;;;;16.87;9.33;;;;;;;14.96;100.00;100546.68;1474078;88;21510;-80
2023/10/13 02:25:01;;;;;;;22.83;8.37;;;;;;;14.94;100.00;100563.37;1470914;88;22103;-80
2023/10/13 02:27:22;;;;;;;14.63;8.33;;;;;;;14.97;100.00;100561.69;1475365;88;21538;-80
2023/10/13 02:29:58;;;;;;;16.73;10.23;;;;;;;14.98;100.00;100555.34;1468589;88;21449;-80
2023/10/13 02:32:20;;;;;;;16.77;8.67;;;;;;;14.98;100.00;100558.00;1468052;88;21620;-80
2023/10/13 02:34:46;;;;;;;19.67;9.93;;;;;;;14.91;100.00;100565.05;1480404;88;21412;-80
2023/10/13 02:37:13;;;;;;;20.43;8.90;;;;;;;14.85;100.00;100563.39;1470158;88;21701;-80
2023/10/13 02:39:41;;;;;;;19.47;9.03;;;;;;;14.81;100.00;100562.06;1474459;88;21501;-80
2023/10/13 02:42:22;;;;;;;16.07;9.10;;;;;;;14.77;100.00;100558.59;1467058;88;21601;-80
2023/10/13 02:44:41;;;;;;;16.27;8.33;;;;;;;14.69;100.00;100562.10;1471785;88;22330;-80
2023/10/13 02:47:14;;;;;;;18.23;8.87;;;;;;;14.64;100.00;100573.29;1481386;88;21671;-80
2023/10/13 02:49:36;;;;;;;18.80;9.03;;;;;;;14.61;100.00;100576.27;1476530;88;22344;-80
2023/10/13 02:52:08;;;;;;;20.93;10.23;;;;;;;14.58;100.00;100572.61;1486505;88;21524;-80
2023/10/13 02:54:37;;;;;;;15.17;8.13;;;;;;;14.57;100.00;100564.80;1479522;88;21523;-80
2023/10/13 02:57:03;;;;;;;20.60;8.60;;;;;;;14.53;100.00;100559.47;1477419;88;21501;-80
2023/10/13 02:59:38;;;;;;;21.07;9.00;;;;;;;14.43;100.00;100562.30;1497337;88;21486;-83
2023/10/13 03:04:51;;;;;;;21.63;9.10;;;;;;;14.41;100.00;100569.14;1483964;88;21435;-82
2023/10/13 03:07:28;;;;;;;20.73;9.70;;;;;;;14.45;100.00;100562.97;1478053;88;22380;-82
2023/10/13 03:09:52;;;;;;;24.13;10.23;;;;;;;14.47;100.00;100562.78;1476267;88;21484;-80
2023/10/13 03:12:20;;;;;;;22.30;10.30;;;;;;;14.47;100.00;100562.78;1482915;88;21435;-82
2023/10/13 03:14:48;;;;;;;27.80;10.07;;;;;;;14.45;100.00;100561.64;1480706;88;21523;-80
2023/10/13 03:17:17;;;;;;;28.07;12.37;;;;;;;14.42;100.00;100560.14;1474902;88;21524;-80
2023/10/13 03:19:49;;;;;;;15.83;10.93;;;;;;;14.40;100.00;100555.48;1463047;88;23083;-80
2023/10/13 03:22:15;;;;;;;22.80;11.35;;;;;;;14.40;100.00;100559.47;1470416;88;21677;-79
2023/10/13 03:24:47;;;;;;;17.50;8.90;;;;;;;14.43;100.00;100556.47;1484187;88;22403;-80
2023/10/13 03:27:38;;;;;;;20.10;9.13;;;;;;;14.47;100.00;100557.46;1470431;88;21399;-80
2023/10/13 03:29:48;;;;;;;24.40;10.97;;;;;;;14.44;100.00;100546.64;1470075;88;21622;-80
2023/10/13 03:32:16;;;;;;;15.10;9.43;;;;;;;14.40;100.00;100554.66;1483103;88;22092;-79
2023/10/13 03:34:54;;;;;;;17.70;9.13;;;;;;;14.37;100.00;100557.16;1478375;88;21597;-80
2023/10/13 03:40:06;;;;;;;14.00;9.47;;;;;;;14.35;100.00;100560.47;1478631;88;22366;-80
2023/10/13 03:42:32;;;;;;;;;;;;;;;14.31;100.00;100559.67;1488053;88;21457;-80
2023/10/13 03:44:58;;;;;;;17.07;9.87;;;;;;;14.28;100.00;100563.50;1480920;88;20840;-80
2023/10/13 03:47:32;;;;;;;18.57;11.10;;;;;;;14.26;100.00;100564.16;1459962;88;22455;-80
2023/10/13 03:52:41;;;;;;;21.30;10.03;;;;;;;14.20;100.00;100575.48;1478539;88;21594;-80
2023/10/13 03:55:16;;;;;;;23.10;8.83;;;;;;;14.16;100.00;100568.84;1486213;88;21878;-80
2023/10/13 03:57:39;;;;;;;17.73;9.57;;;;;;;14.13;100.00;100574.50;1482490;88;21457;-80
2023/10/13 04:00:12;;;;;;;18.90;10.80;;;;;;;14.10;100.00;100584.98;1479437;88;21472;-80
2023/10/13 04:02:38;;;;;;;14.67;10.20;;;;;;;14.07;100.00;100591.11;1483132;88;21427;-80
2023/10/13 04:05:09;;;;;;;22.13;10.63;;;;;;;14.06;100.00;100588.95;1457464;88;21641;-79
2023/10/13 04:08:44;;;;;;;20.50;10.30;;;;;;;14.07;100.00;100588.44;1491111;88;21530;-80
2023/10/13 04:16:01;;;;;;;19.53;10.83;;;;;;;14.04;100.00;100605.60;1486300;88;22441;-80
2023/10/13 04:18:34;;;;;;;16.00;10.55;;;;;;;14.04;100.00;100606.08;1483529;88;22040;-81
2023/10/13 04:21:03;;;;;;;23.37;10.93;;;;;;;14.04;100.00;100612.73;1479288;88;21516;-81
2023/10/13 04:23:26;;;;;;;18.67;10.67;;;;;;;14.04;100.00;100604.27;1480746;88;21464;-80
2023/10/13 04:28:34;;;;;;;25.97;9.23;;;;;;;14.09;100.00;100591.78;1474743;88;22395;-80
2023/10/13 04:33:35;;;;;;;16.07;11.30;;;;;;;14.17;100.00;100589.95;1479877;88;21443;-80
2023/10/13 04:38:59;;;;;;;18.23;9.97;;;;;;;14.22;100.00;100588.95;1488499;88;21486;-81
2023/10/13 04:41:39;;;;;;;16.03;9.87;;;;;;;14.21;100.00;100582.45;1481764;88;22300;-79
2023/10/13 04:54:49;;;;;;;21.07;11.40;;;;;;;14.20;100.00;100594.11;1489129;88;21547;-80
2023/10/13 05:03:17;;;;;;;22.00;11.00;;;;;;;14.12;100.00;100618.89;1482353;88;22522;-80
2023/10/13 05:46:48;;;;;;;21.27;11.10;;;;;;;14.02;100.00;100625.39;1486510;88;21457;-79
2023/10/13 05:51:33;;;;;;;21.47;10.53;;;;;;;14.03;100.00;100644.34;1482366;88;21568;-80
2023/10/13 06:30:04;;;;;;;18.03;11.07;;;;;;;14.81;100.00;100671.80;1565332;88;21513;-78
2023/10/13 06:32:32;;;;;;;20.43;9.93;;;;;;;14.95;100.00;100675.61;1406755;88;21383;-77
2023/10/13 06:34:58;;;;;;;18.83;11.50;;;;;;;15.01;100.00;100675.75;1401846;88;22243;-79
2023/10/13 06:37:32;;;;;;;21.90;10.27;;;;;;;15.08;100.00;100678.59;1398533;88;21598;-79
2023/10/13 06:40:22;;;;;;;19.30;10.90;;;;;;;15.13;100.00;100685.55;1442525;88;21561;-79
2023/10/13 06:42:42;;;;;;;22.43;11.33;;;;;;;15.20;100.00;100689.21;1560778;88;22302;-79
2023/10/13 06:45:08;;;;;;;23.00;10.60;;;;;;;15.25;100.00;100694.05;1384356;91;21523;-78
2023/10/13 06:47:33;;;;;;;25.53;11.57;;;;;;;15.31;100.00;100700.02;1405808;88;21590;-78
2023/10/13 06:50:00;;;;;;;26.63;13.30;;;;;;;15.37;100.00;100706.50;1404285;88;21495;-78
2023/10/13 06:52:29;;;;;;;26.60;12.10;;;;;;;15.42;100.00;100704.13;1402111;88;21585;-79
2023/10/13 06:57:22;;;;;;;24.93;10.27;;;;;;;15.46;100.00;100704.13;1479559;85;25710;-78
2023/10/13 06:59:49;;;;;;;18.17;10.40;;;;;;;15.42;100.00;100712.13;1464930;89;21559;-79
2023/10/13 07:02:21;;;;;;;17.97;10.03;;;;;;;15.35;100.00;100720.82;1468982;87;21568;-78
2023/10/13 07:04:43;;;;;;;21.80;10.40;;;;;;;15.33;100.00;100728.18;1483791;88;21529;-78
2023/10/13 07:07:10;;;;;;;20.47;10.07;;;;;;;15.37;100.00;100731.84;1482376;88;22417;-79
2023/10/13 07:09:39;;;;;;;25.23;10.10;;;;;;;15.40;100.00;100732.83;1482578;88;21574;-78
2023/10/13 07:12:12;;;;;;;28.97;11.30;;;;;;;15.46;100.00;100732.14;1488714;88;22175;-78
2023/10/13 07:15:03;;;;;;;20.53;11.57;;;;;;;15.58;100.00;100734.75;1510030;85;27542;-80
2023/10/13 07:17:24;;;;;;;29.43;12.17;;;;;;;15.64;100.00;100732.72;1432292;91;22474;-80
2023/10/13 07:20:14;;;;;;;22.43;10.73;;;;;;;15.76;100.00;100733.20;1430525;91;21628;-81
2023/10/13 07:22:23;;;;;;;25.30;10.17;;;;;;;15.87;100.00;100729.31;1431635;91;22469;-81
2023/10/13 07:27:29;;;;;;;28.60;10.93;;;;;;;15.97;100.00;100736.11;1515392;85;23341;-81
2023/10/13 07:30:05;;;;;;;20.33;11.50;;;;;;;16.02;100.00;100740.91;1480894;86;21567;-80
2023/10/13 07:32:25;;;;;;;21.10;10.27;;;;;;;16.07;100.00;100738.55;1484266;87;22364;-81
2023/10/13 07:34:55;;;;;;;19.80;11.03;;;;;;;16.19;100.00;100738.46;1472702;88;21470;-80
2023/10/13 07:37:29;;;;;;;26.35;12.25;;;;;;;16.41;100.00;100737.33;1478623;88;21611;-80
2023/10/13 07:39:59;;;;;;;21.63;12.03;;;;;;;16.55;100.00;100726.38;1487080;88;22372;-81
2023/10/13 07:42:31;;;;;;;27.70;11.88;;;;;;;16.72;100.00;100729.24;1402191;87;21523;-80
2023/10/13 07:44:55;;;;;;;29.53;13.53;;;;;;;16.92;100.00;100734.94;1421100;87;21471;-80
2023/10/13 07:47:24;;;;;;;28.03;12.37;;;;;;;17.09;100.00;100720.88;1481307;87;21558;-81
2023/10/13 07:49:50;;;;;;;22.67;10.87;;;;;;;17.27;100.00;100724.55;1547886;88;21441;-81
2023/10/13 07:55:10;;;;;;;18.40;11.63;;;;;;;17.59;100.00;100721.48;1402900;87;22345;-82
2023/10/13 07:57:29;;;;;;;30.13;14.30;;;;;;;17.76;100.00;100718.61;1416471;88;22307;-89
2023/10/13 08:00:08;;;;;;;31.67;12.63;;;;;;;17.92;100.00;100725.09;1404371;88;21537;-91
2023/10/13 08:05:14;;;;;;;21.35;11.75;;;;;;;18.26;100.00;100724.95;1483135;88;21486;-88
2023/10/13 08:07:39;;;;;;;28.83;15.58;;;;;;;18.46;100.00;100721.13;1517790;87;21656;-89
2023/10/13 08:13:47;;;;;;;22.77;13.13;;;;;;;18.82;100.00;100721.07;1484205;88;21471;-94
2023/10/13 08:16:20;;;;;;;22.45;12.45;;;;;;;19.03;100.00;100717.50;1488771;88;21461;-92
2023/10/13 08:18:43;;;;;;;30.02;14.93;;;;;;;19.07;100.00;100715.25;1492756;87;23033;-93
2023/10/13 08:21:16;;;;;;;36.93;17.15;;;;;;;19.13;100.00;100710.44;1486388;87;22395;-91
2023/10/13 08:35:23;;;;;;;24.30;12.00;;;;;;;19.70;100.00;100718.71;1483419;88;21500;-92
2023/10/13 08:37:28;;;;;;;21.15;13.10;;;;;;;19.85;100.00;100723.92;1472972;88;21648;-91
2023/10/13 08:39:58;;;;;;;24.27;13.08;;;;;;;19.95;100.00;100727.59;1476421;86;21553;-92
2023/10/13 08:44:52;;;;;;;21.75;11.40;;;;;;;20.14;100.00;100732.20;1482460;87;21470;-89
2023/10/13 08:47:18;;;;;;;29.00;11.63;;;;;;;20.23;100.00;100728.30;1416189;88;22234;-90
2023/10/13 08:49:50;;;;;;;26.85;12.18;;;;;;;20.32;100.00;100720.04;1485271;87;21753;-92
2023/10/13 08:55:13;;;;;;;18.25;11.50;;;;;;;20.59;100.00;100723.08;1446374;87;22380;-92
2023/10/13 08:57:34;;;;;;;28.38;9.80;;;;;;;20.76;100.00;100686.38;1483092;88;21640;-92
2023/10/13 09:00:27;;;;;;;21.05;9.75;;;;;;;20.92;100.00;100712.84;1481882;88;21463;-92
2023/10/13 09:03:28;;;;;;;23.45;9.65;;;;;;;21.24;100.00;100719.20;1483285;88;21478;-95
2023/10/13 09:05:09;;;;;;;21.93;9.23;;;;;;;21.33;100.00;100706.34;1473735;88;21655;-91
2023/10/13 09:07:28;;;;;;;21.15;9.55;;;;;;;21.29;100.00;100705.95;1480609;87;21500;-92
2023/10/13 09:15:06;;;;;;;20.02;8.23;;;;;;;21.84;100.00;100704.21;1475281;88;21714;-92
2023/10/13 09:17:53;;;;;;;22.82;9.33;;;;;;;22.43;100.00;100709.77;1569315;87;21454;-92
2023/10/13 09:20:42;;;;;;;18.60;9.38;;;;;;;23.08;100.00;100707.28;1564163;87;21331;-92
2023/10/13 09:25:38;;;;;;;19.85;8.83;;;;;;;24.63;100.00;100706.72;1465212;87;21522;-95
2023/10/13 09:28:18;;;;;;;22.80;8.83;;;;;;;25.02;100.00;100699.48;1473985;87;22513;-93
2023/10/13 09:30:47;;;;;;;20.00;9.48;;;;;;;25.53;100.00;100697.36;1437250;88;22292;-95
2023/10/13 09:33:16;;;;;;;23.40;10.65;;;;;;;25.80;100.00;100703.56;1476319;88;21605;-94
2023/10/13 09:35:49;;;;;;;23.98;9.10;;;;;;;26.18;94.46;100697.55;1472108;88;22495;-94
2023/10/13 09:39:29;;;;;;;14.25;7.58;;;;;;;26.48;85.91;100705.37;1462944;87;22336;-96
2023/10/13 09:41:43;;;;;;;16.77;8.83;;;;;;;26.76;69.08;100703.67;1476065;88;21789;-93
2023/10/13 09:48:45;;;;;;;22.85;9.48;;;;;;;27.08;66.00;100696.26;1472733;88;21640;-87
2023/10/13 09:51:22;;;;;;;;;;;;;;;27.48;64.72;100693.79;1468550;87;21456;-93
2023/10/13 09:54:27;;;;;;;13.40;7.22;;;;;;;27.55;61.29;100689.81;1471610;88;20341;-92
2023/10/13 09:57:12;;;;;;;23.42;7.95;;;;;;;27.70;62.17;100690.52;1430162;88;22686;-93
2023/10/13 09:59:49;;;;;;;14.50;7.92;;;;;;;27.80;61.47;100687.95;1466372;87;21435;-94
2023/10/13 10:06:39;;;;;;;28.57;8.68;;;;;;;27.72;54.76;100692.45;1478563;88;21538;-93
2023/10/13 10:09:12;;;;;;;22.13;7.20;;;;;;;27.07;55.30;100693.23;1466684;87;21605;-93
2023/10/13 10:11:56;;;;;;;15.25;7.37;;;;;;;26.73;55.96;100694.13;1485892;88;21493;-93
2023/10/13 10:14:44;;;;;;;18.35;8.15;;;;;;;26.53;55.85;100691.92;1479834;87;21508;-94
2023/10/13 10:17:11;;;;;;;21.23;7.75;;;;;;;26.37;55.70;100692.70;1466827;88;21464;-91
2023/10/13 10:19:55;;;;;;;15.83;7.55;;;;;;;26.41;55.25;100689.77;1473472;87;21471;-83
2023/10/13 10:22:33;;;;;;;20.20;7.20;;;;;;;26.14;55.34;100684.70;1476801;88;21516;-82
2023/10/13 10:25:06;;;;;;;15.95;6.33;;;;;;;26.04;55.97;100675.33;1475195;88;21515;-83
2023/10/13 10:27:34;;;;;;;17.17;6.62;;;;;;;25.88;54.33;100676.11;1478767;88;21589;-80
2023/10/13 10:30:03;;;;;;;16.25;5.85;;;;;;;25.62;54.45;100672.88;1485110;87;21582;-83
2023/10/13 10:32:37;;;;;;;12.80;6.67;;;;;;;25.40;54.74;100666.46;1480693;87;21700;-82
2023/10/13 10:35:20;;;;;;;16.75;6.12;;;;;;;25.24;55.12;100662.63;1487161;87;21578;-83
2023/10/13 10:37:48;;;;;;;14.40;5.78;;;;;;;25.14;54.32;100664.57;1483637;87;21656;-83
2023/10/13 10:42:52;;;;;;;22.37;6.70;;;;;;;25.11;54.32;100669.08;1446490;87;21659;-81
2023/10/13 10:45:22;;;;;;;13.10;5.70;;;;;;;25.25;51.66;100671.58;1479745;87;22411;-83
2023/10/13 10:47:51;;;;;;;15.20;5.60;;;;;;;25.38;51.49;100673.49;1491403;87;22046;-84
2023/10/13 10:55:00;;;;;;;19.35;8.25;;;;;;;25.20;51.74;100670.42;1479560;88;21507;-83
2023/10/13 10:57:29;;;;;;;19.45;8.48;;;;;;;25.17;52.01;100662.74;1489679;87;21441;-83
2023/10/13 11:00:11;;;;;;;19.70;7.35;;;;;;;25.20;52.46;100658.23;1484387;87;21449;-82
2023/10/13 11:02:31;;;;;;;18.98;8.03;;;;;;;25.26;52.40;100663.22;1474836;87;22292;-84
2023/10/13 11:04:57;;;;;;;20.48;7.62;;;;;;;25.23;52.62;100662.31;1484099;88;21500;-85
2023/10/13 11:07:25;;;;;;;26.52;8.50;;;;;;;25.20;52.78;100664.16;1483778;88;22395;-82
2023/10/13 11:10:06;;;;;;;25.70;8.33;;;;;;;25.18;52.86;100658.99;1488699;88;21508;-83
2023/10/13 11:12:26;;;;;;;17.98;7.58;;;;;;;25.27;52.53;100659.44;1477280;88;21658;-83
2023/10/13 11:15:33;;;;;;;21.23;6.67;;;;;;;25.26;52.23;100652.89;1484803;88;22440;-82
2023/10/13 11:17:56;;;;;;;20.13;6.33;;;;;;;25.31;52.29;100654.36;1478910;87;22602;-83
2023/10/13 11:20:26;;;;;;;20.50;6.17;;;;;;;25.38;51.34;100651.00;1484977;87;21523;-84
2023/10/13 11:22:53;;;;;;;21.20;7.08;;;;;;;25.40;50.70;100644.79;1489726;88;21418;-83
2023/10/13 11:25:34;;;;;;;22.77;7.85;;;;;;;25.44;50.56;100631.07;1484652;87;22038;-83
2023/10/13 11:28:17;;;;;;;22.87;6.85;;;;;;;25.39;51.04;100632.31;1477382;88;22046;-81
2023/10/13 11:30:51;;;;;;;23.62;8.38;;;;;;;25.42;51.34;100635.36;1476449;87;21583;-82
2023/10/13 11:33:42;;;;;;;21.93;8.90;;;;;;;25.56;51.13;100631.84;1538948;87;21493;-84
2023/10/13 11:38:26;;;;;;;29.77;6.90;;;;;;;25.77;50.75;100630.86;1468917;87;21596;-83
2023/10/13 11:43:52;;;;;;;11.90;5.72;;;;;;;26.15;49.61;100631.55;1466101;88;22566;-82
2023/10/13 11:46:15;;;;;;;14.90;6.00;;;;;;;26.21;48.58;100639.24;1409443;88;21420;-82
2023/10/13 11:48:43;;;;;;;24.87;6.55;;;;;;;26.19;48.20;100636.79;1470760;87;21434;-82
2023/10/13 11:51:23;;;;;;;16.45;7.35;;;;;;;26.11;47.68;100640.72;1475932;87;22366;-82
2023/10/13 11:53:51;;;;;;;17.02;6.53;;;;;;;26.10;47.77;100636.38;1470060;87;21649;-84
2023/10/13 11:56:24;;;;;;;16.85;7.37;;;;;;;26.01;48.00;100632.42;1469924;87;21976;-83
2023/10/13 11:58:47;;;;;;;17.32;6.55;;;;;;;26.00;48.27;100625.34;1554326;87;21376;-83
2023/10/13 12:06:46;;;;;;;17.70;6.05;;;;;;;26.14;47.80;100629.10;1472475;88;21465;-82
2023/10/13 12:11:44;;;;;;;14.95;5.47;;;;;;;25.73;48.03;100627.00;1547875;88;21465;-82
2023/10/13 12:18:30;;;;;;;15.23;6.05;;;;;;;25.44;48.39;100625.65;1471214;88;21582;-83
2023/10/13 12:20:57;;;;;;;12.25;5.72;;;;;;;25.79;47.87;100627.38;1470924;88;21966;-82
2023/10/13 12:23:31;;;;;;;18.17;5.80;;;;;;;25.94;47.34;100626.32;1473668;87;21680;-82
2023/10/13 12:25:59;;;;;;;22.40;6.83;;;;;;;26.11;47.26;100631.23;1469478;87;21575;-81
2023/10/13 12:28:28;;;;;;;19.73;6.20;;;;;;;26.21;46.64;100628.39;1398856;88;21391;-83
2023/10/13 12:31:03;;;;;;;18.45;6.00;;;;;;;26.21;46.68;100625.68;1394269;87;21354;-82
2023/10/13 12:33:36;;;;;;;15.72;6.37;;;;;;;26.21;46.58;100624.32;1551720;87;21406;-84
2023/10/13 12:36:26;;;;;;;19.02;6.87;;;;;;;26.08;46.64;100619.52;1557402;87;22294;-82
2023/10/13 12:52:16;;;;;;;21.85;6.10;;;;;;;26.43;45.81;100608.95;1488904;87;21484;-83
2023/10/13 12:57:25;;;;;;;18.17;6.37;;;;;;;26.60;46.01;100604.07;1474199;87;21471;-82
2023/10/13 12:59:53;;;;;;;17.12;5.90;;;;;;;26.66;45.67;100603.06;1474467;87;22395;-82
2023/10/13 13:02:21;;;;;;;22.13;6.40;;;;;;;26.78;45.42;100601.05;1463995;87;21597;-83
2023/10/13 13:04:54;;;;;;;28.57;6.92;;;;;;;26.85;45.13;100595.46;1395883;88;21384;-83
2023/10/13 13:07:18;;;;;;;21.33;7.17;;;;;;;26.96;45.26;100591.81;1395168;89;22389;-82
2023/10/13 13:09:44;;;;;;;18.37;6.25;;;;;;;27.13;45.31;100584.41;1397890;88;21412;-83
2023/10/13 13:12:12;;;;;;;14.33;6.45;;;;;;;27.24;44.63;100588.08;1547798;87;21309;-84
2023/10/13 13:14:45;;;;;;;14.55;5.87;;;;;;;27.29;43.82;100580.54;1395697;87;21354;-83
2023/10/13 13:17:07;;;;;;;17.25;7.55;;;;;;;27.33;43.48;100585.19;1389284;90;21433;-83
2023/10/13 13:19:41;;;;;;;19.73;6.67;;;;;;;27.35;42.88;100585.77;1418565;87;21485;-83
2023/10/13 13:22:12;;;;;;;16.67;5.90;;;;;;;27.31;42.68;100577.03;1470880;87;22454;-82
2023/10/13 13:24:43;;;;;;;17.67;5.87;;;;;;;27.20;42.92;100577.45;1459693;87;21434;-83
2023/10/13 13:27:14;;;;;;;25.25;8.13;;;;;;;27.07;42.96;100579.16;1481229;88;21737;-82
2023/10/13 13:29:46;;;;;;;16.20;6.60;;;;;;;26.79;43.39;100572.85;1480130;88;21427;-82
2023/10/13 13:32:25;;;;;;;19.30;5.97;;;;;;;26.55;43.88;100578.48;1484010;88;21657;-81
2023/10/13 13:34:54;;;;;;;21.42;6.20;;;;;;;26.35;44.21;100572.73;1482283;87;21419;-83
2023/10/13 13:37:21;;;;;;;24.32;7.55;;;;;;;26.21;44.67;100572.78;1481827;88;21478;-83
2023/10/13 13:39:47;;;;;;;20.08;5.70;;;;;;;26.07;44.98;100563.64;1481909;88;21618;-83
2023/10/13 13:42:17;;;;;;;23.10;6.17;;;;;;;25.92;45.22;100566.09;1479749;87;22364;-82
2023/10/13 13:44:47;;;;;;;31.60;14.68;;;;;;;25.79;45.43;100564.50;1567709;87;22418;-83
2023/10/13 13:47:14;;;;;;;22.48;11.30;;;;;;;25.69;46.00;100562.14;1411805;87;21442;-83
2023/10/13 13:49:46;;;;;;;48.30;10.45;;;;;;;25.53;46.38;100560.52;1406029;87;21515;-81
2023/10/13 13:52:09;;;;;;;19.43;7.33;;;;;;;25.40;46.88;100560.27;1392207;89;21323;-81
2023/10/13 13:54:35;;;;;;;27.80;7.35;;;;;;;25.34;47.39;100561.23;1483342;88;22446;-82
2023/10/13 13:57:02;;;;;;;22.35;6.85;;;;;;;25.29;47.94;100563.03;1483113;87;21581;-82
2023/10/13 13:59:33;;;;;;;28.52;8.25;;;;;;;25.19;48.33;100561.77;1486840;87;21449;-81
2023/10/13 14:01:59;;;;;;;13.85;6.75;;;;;;;25.12;48.61;100565.14;1475623;88;21492;-83
2023/10/13 14:04:25;;;;;;;15.80;7.12;;;;;;;25.08;48.88;100562.60;1483747;88;21485;-82
2023/10/13 14:06:51;;;;;;;23.05;8.98;;;;;;;25.06;49.20;100557.12;1478789;87;21500;-83
2023/10/13 14:10:06;;;;;;;27.55;8.38;;;;;;;25.04;49.24;100545.74;1468044;88;22622;-83
2023/10/13 14:14:33;;;;;;;20.43;8.48;;;;;;;24.99;49.80;100544.55;1487514;88;21543;-83
2023/10/13 14:17:08;;;;;;;21.12;6.30;;;;;;;24.96;50.25;100540.16;1482283;88;21736;-82
2023/10/13 14:19:32;;;;;;;24.25;7.85;;;;;;;24.98;50.39;100543.46;1474534;88;21478;-83
2023/10/13 14:22:06;;;;;;;19.00;7.87;;;;;;;24.94;50.68;100539.57;1485578;87;21678;-82
2023/10/13 14:24:28;;;;;;;20.48;6.78;;;;;;;24.89;50.84;100546.26;1480610;87;21635;-83
2023/10/13 14:27:07;;;;;;;21.60;6.65;;;;;;;24.88;51.04;100541.89;1475927;88;22476;-83
2023/10/13 14:29:27;;;;;;;16.32;7.30;;;;;;;24.83;51.26;100545.83;1481440;87;21678;-83
2023/10/13 14:31:56;;;;;;;25.47;7.93;;;;;;;24.75;51.34;100537.04;1470733;88;21648;-82
2023/10/13 14:34:22;;;;;;;15.28;6.67;;;;;;;24.74;51.45;100532.70;1479004;87;22381;-83
2023/10/13 14:36:49;;;;;;;19.23;5.95;;;;;;;24.78;51.72;100534.92;1472691;88;21456;-82
2023/10/13 14:39:15;;;;;;;28.67;8.53;;;;;;;24.81;51.83;100535.80;1473104;87;22008;-83
2023/10/13 14:41:41;;;;;;;19.23;6.55;;;;;;;24.90;51.54;100523.53;1473767;87;21745;-82
2023/10/13 14:44:08;;;;;;;13.53;6.50;;;;;;;24.92;51.54;100521.41;1481094;87;21636;-82
2023/10/13 14:46:39;;;;;;;23.98;7.05;;;;;;;25.07;51.54;100520.89;1475406;88;21464;-83
2023/10/13 14:49:06;;;;;;;24.72;7.17;;;;;;;25.33;51.48;100524.39;1471331;88;21693;-83
2023/10/13 14:51:32;;;;;;;19.23;6.45;;;;;;;25.61;50.93;100520.84;1467967;87;21538;-83
2023/10/13 14:53:59;;;;;;;15.35;6.78;;;;;;;25.87;50.87;100527.53;1477043;87;21405;-84
2023/10/13 14:56:27;;;;;;;20.65;7.12;;;;;;;25.98;50.47;100529.88;1472150;88;21398;-85